createdAt,value
2023-09-17T00:00:42.818Z,14.05
2023-09-17T00:03:31.317Z,14.64
2023-09-17T00:06:00.862Z,14.92
2023-09-17T00:08:29.362Z,15.04
2023-09-17T00:10:57.308Z,15.29
2023-09-17T00:13:26.262Z,15.63
2023-09-17T00:15:54.572Z,15.90
2023-09-17T00:18:22.724Z,16.05
2023-09-17T00:20:50.580Z,16.27
2023-09-17T00:23:18.438Z,15.37
2023-09-17T00:25:46.585Z,13.96
2023-09-17T00:28:15.066Z,13.29
2023-09-17T00:30:43.533Z,13.76
2023-09-17T00:33:13.348Z,14.42
2023-09-17T00:35:41.315Z,14.97
2023-09-17T00:38:10.743Z,15.32
2023-09-17T00:40:40.826Z,15.43
2023-09-17T00:43:09.928Z,15.56
2023-09-17T00:45:39.868Z,15.67
2023-09-17T00:48:09.230Z,15.80
2023-09-17T00:50:40.411Z,14.90
2023-09-17T00:53:09.710Z,13.64
2023-09-17T00:55:38.985Z,13.63
2023-09-17T00:58:08.166Z,14.39
2023-09-17T01:00:39.819Z,14.93
2023-09-17T01:03:08.630Z,15.36
2023-09-17T01:05:44.457Z,15.42
2023-09-17T01:08:13.520Z,15.19
2023-09-17T01:10:42.106Z,14.35
2023-09-17T01:13:11.302Z,13.31
2023-09-17T01:15:39.329Z,13.29
2023-09-17T01:18:11.963Z,14.10
2023-09-17T01:21:03.920Z,14.68
2023-09-17T01:23:47.996Z,14.99
2023-09-17T01:26:28.003Z,15.03
2023-09-17T01:28:57.431Z,15.34
2023-09-17T01:31:28.678Z,15.42
2023-09-17T01:33:57.136Z,14.58
2023-09-17T01:36:36.064Z,13.39
2023-09-17T01:39:15.924Z,13.10
2023-09-17T01:41:46.377Z,13.78
2023-09-17T01:44:15.811Z,14.06
2023-09-17T01:46:46.967Z,14.41
2023-09-17T01:49:16.118Z,14.82
2023-09-17T01:51:45.845Z,15.18
2023-09-17T01:54:15.623Z,15.39
2023-09-17T01:56:44.563Z,14.86
2023-09-17T01:59:13.617Z,13.60
2023-09-17T02:01:43.790Z,12.62
2023-09-17T02:04:12.391Z,12.27
2023-09-17T02:06:40.400Z,13.42
2023-09-17T02:09:09.997Z,14.55
2023-09-17T02:11:37.921Z,15.32
2023-09-17T02:14:09.209Z,15.88
2023-09-17T02:16:38.510Z,15.68
2023-09-17T02:19:07.937Z,14.45
2023-09-17T02:21:35.885Z,13.35
2023-09-17T02:24:07.263Z,12.60
2023-09-17T02:26:35.212Z,13.12
2023-09-17T02:29:07.963Z,14.22
2023-09-17T02:31:36.115Z,15.02
2023-09-17T02:34:05.278Z,15.47
2023-09-17T02:36:35.374Z,15.03
2023-09-17T02:39:04.102Z,13.75
2023-09-17T02:41:34.717Z,12.74
2023-09-17T02:44:04.566Z,12.49
2023-09-17T02:46:32.768Z,13.69
2023-09-17T02:49:01.322Z,14.41
2023-09-17T02:51:29.867Z,15.18
2023-09-17T02:53:58.029Z,15.64
2023-09-17T02:56:26.380Z,15.05
2023-09-17T02:58:54.266Z,13.75
2023-09-17T03:01:25.715Z,12.96
2023-09-17T03:03:54.396Z,13.92
2023-09-17T03:06:22.977Z,15.00
2023-09-17T03:08:50.949Z,15.60
2023-09-17T03:11:19.125Z,14.71
2023-09-17T03:13:48.531Z,13.36
2023-09-17T03:16:17.395Z,13.30
2023-09-17T03:18:46.335Z,14.34
2023-09-17T03:21:14.759Z,15.12
2023-09-17T03:23:42.629Z,15.06
2023-09-17T03:26:11.719Z,13.43
2023-09-17T03:28:39.713Z,13.09
2023-09-17T03:31:07.690Z,13.67
2023-09-17T03:33:37.043Z,13.96
2023-09-17T03:36:05.858Z,14.37
2023-09-17T03:38:34.577Z,14.24
2023-09-17T03:41:02.547Z,14.66
2023-09-17T03:43:32.038Z,14.86
2023-09-17T03:46:07.909Z,14.03
2023-09-17T03:48:35.892Z,12.72
2023-09-17T03:51:05.865Z,12.98
2023-09-17T03:53:34.916Z,13.89
2023-09-17T03:56:03.066Z,14.54
2023-09-17T03:58:32.445Z,14.86
2023-09-17T04:01:01.424Z,14.19
2023-09-17T04:03:33.522Z,12.74
2023-09-17T04:06:03.693Z,12.95
2023-09-17T04:08:31.882Z,13.81
2023-09-17T04:11:00.980Z,14.17
2023-09-17T04:13:30.814Z,14.55
2023-09-17T04:15:58.820Z,15.01
2023-09-17T04:18:28.098Z,14.89
2023-09-17T04:20:56.657Z,13.61
2023-09-17T04:23:26.394Z,12.79
2023-09-17T04:25:57.346Z,13.65
2023-09-17T04:28:26.336Z,14.28
2023-09-17T04:30:54.307Z,14.13
2023-09-17T04:33:22.858Z,14.06
2023-09-17T04:36:00.092Z,13.96
2023-09-17T04:38:28.768Z,13.98
2023-09-17T04:40:58.207Z,13.90
2023-09-17T04:43:28.057Z,14.00
2023-09-17T04:45:56.276Z,13.89
2023-09-17T04:48:24.458Z,13.85
2023-09-17T04:50:52.615Z,13.74
2023-09-17T04:53:20.787Z,13.61
2023-09-17T04:55:49.037Z,14.08
2023-09-17T04:58:17.717Z,14.44
2023-09-17T05:00:46.651Z,13.38
2023-09-17T05:03:14.733Z,12.80
2023-09-17T05:05:43.462Z,13.35
2023-09-17T05:08:11.318Z,14.04
2023-09-17T05:10:39.386Z,14.16
2023-09-17T05:13:07.497Z,13.13
2023-09-17T05:15:35.839Z,12.89
2023-09-17T05:18:10.404Z,13.71
2023-09-17T05:20:44.953Z,14.45
2023-09-17T05:23:12.936Z,14.67
2023-09-17T05:25:40.967Z,13.84
2023-09-17T05:28:09.694Z,12.72
2023-09-17T05:30:38.579Z,12.17
2023-09-17T05:33:07.845Z,13.25
2023-09-17T05:35:38.198Z,14.12
2023-09-17T05:38:06.817Z,14.38
2023-09-17T05:40:35.413Z,13.91
2023-09-17T05:43:03.386Z,12.72
2023-09-17T05:45:31.810Z,12.04
2023-09-17T05:47:59.997Z,12.81
2023-09-17T05:50:27.911Z,13.58
2023-09-17T05:52:58.813Z,14.26
2023-09-17T05:55:26.792Z,14.51
2023-09-17T05:57:55.238Z,13.38
2023-09-17T06:00:23.993Z,12.31
2023-09-17T06:02:52.165Z,12.65
2023-09-17T06:05:21.310Z,13.65
2023-09-17T06:07:50.873Z,14.31
2023-09-17T06:10:18.855Z,14.46
2023-09-17T06:12:46.805Z,13.42
2023-09-17T06:15:17.300Z,12.40
2023-09-17T06:17:45.504Z,12.93
2023-09-17T06:20:13.432Z,13.68
2023-09-17T06:22:42.301Z,14.23
2023-09-17T06:25:11.049Z,14.48
2023-09-17T06:27:40.089Z,13.52
2023-09-17T06:30:09.296Z,12.44
2023-09-17T06:32:38.617Z,12.51
2023-09-17T06:35:08.277Z,13.55
2023-09-17T06:37:36.512Z,14.26
2023-09-17T06:40:04.852Z,14.52
2023-09-17T06:42:33.317Z,13.58
2023-09-17T06:45:04.979Z,12.63
2023-09-17T06:47:35.047Z,13.38
2023-09-17T06:50:03.521Z,14.15
2023-09-17T06:52:31.565Z,14.63
2023-09-17T06:54:59.546Z,14.26
2023-09-17T06:57:30.482Z,13.14
2023-09-17T07:00:00.313Z,12.79
2023-09-17T07:02:28.567Z,13.78
2023-09-17T07:04:56.635Z,14.20
2023-09-17T07:07:24.964Z,14.42
2023-09-17T07:09:52.823Z,15.13
2023-09-17T07:12:21.087Z,14.66
2023-09-17T07:14:49.459Z,13.38
2023-09-17T07:17:17.995Z,13.04
2023-09-17T07:19:46.171Z,13.89
2023-09-17T07:22:16.302Z,14.57
2023-09-17T07:24:44.338Z,14.84
2023-09-17T07:27:15.261Z,14.19
2023-09-17T07:29:47.175Z,13.28
2023-09-17T07:32:15.768Z,13.53
2023-09-17T07:34:43.764Z,14.36
2023-09-17T07:37:12.553Z,14.91
2023-09-17T07:39:41.153Z,14.70
2023-09-17T07:42:09.334Z,13.59
2023-09-17T07:44:37.671Z,13.14
2023-09-17T07:47:07.538Z,14.18
2023-09-17T07:49:37.644Z,15.04
2023-09-17T07:52:07.323Z,15.21
2023-09-17T07:54:42.180Z,14.18
2023-09-17T07:57:14.516Z,13.28
2023-09-17T07:59:42.436Z,13.47
2023-09-17T08:02:10.788Z,14.65
2023-09-17T08:04:39.065Z,15.46
2023-09-17T08:07:07.235Z,15.02
2023-09-17T08:09:35.300Z,13.81
2023-09-17T08:12:04.256Z,13.58
2023-09-17T08:14:35.874Z,14.49
2023-09-17T08:17:05.538Z,15.28
2023-09-17T08:19:33.807Z,14.75
2023-09-17T08:22:02.200Z,13.60
2023-09-17T08:24:30.341Z,13.32
2023-09-17T08:26:58.474Z,14.48
2023-09-17T08:29:26.595Z,15.31
2023-09-17T08:31:55.229Z,15.33
2023-09-17T08:34:24.101Z,14.39
2023-09-17T08:36:52.065Z,13.82
2023-09-17T08:39:21.287Z,14.67
2023-09-17T08:41:51.858Z,15.52
2023-09-17T08:44:21.274Z,15.03
2023-09-17T08:46:53.929Z,13.99
2023-09-17T08:49:21.858Z,13.80
2023-09-17T08:51:56.655Z,14.69
2023-09-17T08:54:39.132Z,15.23
2023-09-17T08:57:09.746Z,15.16
2023-09-17T08:59:50.108Z,14.05
2023-09-17T09:02:28.656Z,14.13
2023-09-17T09:04:59.276Z,15.55
2023-09-17T09:07:30.217Z,16.04
2023-09-17T09:09:59.097Z,15.00
2023-09-17T09:12:27.800Z,14.11
2023-09-17T09:14:59.073Z,13.84
2023-09-17T09:17:28.954Z,15.01
2023-09-17T09:19:58.625Z,16.08
2023-09-17T09:22:26.791Z,16.30
2023-09-17T09:24:55.215Z,15.27
2023-09-17T09:27:23.153Z,14.30
2023-09-17T09:29:51.235Z,14.15
2023-09-17T09:32:20.100Z,15.45
2023-09-17T09:34:49.452Z,16.12
2023-09-17T09:37:24.493Z,15.37
2023-09-17T09:39:53.311Z,14.46
2023-09-17T09:42:24.313Z,14.39
2023-09-17T09:44:53.304Z,15.18
2023-09-17T09:47:26.454Z,15.42
2023-09-17T09:49:55.167Z,14.94
2023-09-17T09:52:25.497Z,14.29
2023-09-17T09:54:53.765Z,14.42
2023-09-17T09:57:22.492Z,15.81
2023-09-17T09:59:52.796Z,16.25
2023-09-17T10:02:23.413Z,15.34
2023-09-17T10:04:51.583Z,14.46
2023-09-17T10:07:19.754Z,15.19
2023-09-17T10:09:48.031Z,15.83
2023-09-17T10:12:16.691Z,15.38
2023-09-17T10:14:48.100Z,14.60
2023-09-17T10:17:19.759Z,14.72
2023-09-17T10:19:50.433Z,16.27
2023-09-17T10:22:22.116Z,17.05
2023-09-17T10:24:55.226Z,16.39
2023-09-17T10:27:24.610Z,15.56
2023-09-17T10:29:54.568Z,15.02
2023-09-17T10:32:22.869Z,14.70
2023-09-17T10:34:54.247Z,15.01
2023-09-17T10:37:24.904Z,16.65
2023-09-17T10:39:55.568Z,17.44
2023-09-17T10:42:26.329Z,16.70
2023-09-17T10:44:58.841Z,15.91
2023-09-17T10:47:29.900Z,15.41
2023-09-17T10:49:59.214Z,15.12
2023-09-17T10:52:27.740Z,15.35
2023-09-17T10:54:55.696Z,16.99
2023-09-17T10:57:37.217Z,18.06
2023-09-17T11:00:16.737Z,17.54
2023-09-17T11:02:57.534Z,16.92
2023-09-17T11:05:31.200Z,16.50
2023-09-17T11:08:09.942Z,16.14
2023-09-17T11:10:43.590Z,15.81
2023-09-17T11:13:16.396Z,15.59
2023-09-17T11:15:45.471Z,15.48
2023-09-17T11:18:13.610Z,16.37
2023-09-17T11:21:08.468Z,18.22
2023-09-17T11:23:39.803Z,19.30
2023-09-17T11:26:08.355Z,18.93
2023-09-17T11:28:40.197Z,18.53
2023-09-17T11:31:11.665Z,18.25
2023-09-17T11:33:40.421Z,18.04
2023-09-17T11:36:09.639Z,17.88
2023-09-17T11:38:37.703Z,17.81
2023-09-17T11:41:10.369Z,17.75
2023-09-17T11:43:53.821Z,17.72
2023-09-17T11:46:24.800Z,17.73
2023-09-17T11:48:54.336Z,17.68
2023-09-17T11:51:25.693Z,17.66
2023-09-17T11:54:01.561Z,17.73
2023-09-17T11:56:33.482Z,17.79
2023-09-17T11:59:10.786Z,17.85
2023-09-17T12:01:53.701Z,17.99
2023-09-17T12:04:26.688Z,18.17
2023-09-17T12:06:55.646Z,18.30
2023-09-17T12:09:54.357Z,18.37
2023-09-17T12:12:22.543Z,18.47
2023-09-17T12:14:50.770Z,18.57
2023-09-17T12:17:19.126Z,18.65
2023-09-17T12:19:50.555Z,18.73
2023-09-17T12:22:18.713Z,18.79
2023-09-17T12:25:04.615Z,18.84
2023-09-17T12:27:32.535Z,18.83
2023-09-17T12:30:02.446Z,18.86
2023-09-17T12:32:36.109Z,18.87
2023-09-17T12:35:08.061Z,18.89
2023-09-17T12:37:36.273Z,18.90
2023-09-17T12:40:09.169Z,18.96
2023-09-17T12:42:37.307Z,19.03
2023-09-17T12:45:06.440Z,19.07
2023-09-17T12:47:35.041Z,19.12
2023-09-17T12:50:06.016Z,19.13
2023-09-17T12:52:34.991Z,19.08
2023-09-17T12:55:04.531Z,19.07
2023-09-17T12:57:33.156Z,19.11
2023-09-17T13:00:04.765Z,19.05
2023-09-17T13:02:36.622Z,18.99
2023-09-17T13:05:06.424Z,19.00
2023-09-17T13:07:37.632Z,19.02
2023-09-17T13:10:10.277Z,19.03
2023-09-17T13:12:47.089Z,19.01
2023-09-17T13:15:15.063Z,18.93
2023-09-17T13:17:45.573Z,18.87
2023-09-17T13:20:15.539Z,18.83
2023-09-17T13:22:43.919Z,18.75
2023-09-17T13:25:12.101Z,18.66
2023-09-17T13:27:40.422Z,18.59
2023-09-17T13:30:11.048Z,18.50
2023-09-17T13:32:39.021Z,18.39
2023-09-17T13:35:12.253Z,18.30
2023-09-17T13:37:42.030Z,18.21
2023-09-17T13:40:13.933Z,18.11
2023-09-17T13:42:41.920Z,18.01
2023-09-17T13:45:10.620Z,17.91
2023-09-17T13:47:38.558Z,17.80
2023-09-17T13:50:07.793Z,17.70
2023-09-17T13:52:36.337Z,17.63
2023-09-17T13:55:06.940Z,17.56
2023-09-17T13:57:34.894Z,17.46
2023-09-17T14:00:03.953Z,17.38
2023-09-17T14:02:32.495Z,17.30
2023-09-17T14:05:01.931Z,17.22
2023-09-17T14:07:33.688Z,17.17
2023-09-17T14:10:01.640Z,17.10
2023-09-17T14:12:29.700Z,17.04
2023-09-17T14:14:57.591Z,16.98
2023-09-17T14:17:26.954Z,16.93
2023-09-17T14:19:55.122Z,16.90
2023-09-17T14:22:25.447Z,16.86
2023-09-17T14:24:53.632Z,16.83
2023-09-17T14:27:22.141Z,16.80
2023-09-17T14:29:51.104Z,16.77
2023-09-17T14:32:21.187Z,16.76
2023-09-17T14:34:51.232Z,16.73
2023-09-17T14:37:19.330Z,16.71
2023-09-17T14:39:49.478Z,16.72
2023-09-17T14:42:18.657Z,16.70
2023-09-17T14:44:46.762Z,16.66
2023-09-17T14:47:15.269Z,16.62
2023-09-17T14:49:45.774Z,16.59
2023-09-17T14:52:14.957Z,16.56
2023-09-17T14:54:43.761Z,16.55
2023-09-17T14:57:13.303Z,16.55
2023-09-17T14:59:44.032Z,16.57
2023-09-17T15:02:12.435Z,16.61
2023-09-17T15:04:41.671Z,16.66
2023-09-17T15:07:13.448Z,16.72
2023-09-17T15:09:43.095Z,16.77
2023-09-17T15:12:11.691Z,16.85
2023-09-17T15:14:39.996Z,16.94
2023-09-17T15:17:08.685Z,17.03
2023-09-17T15:19:37.399Z,17.12
2023-09-17T15:22:07.597Z,17.21
2023-09-17T15:24:35.881Z,17.29
2023-09-17T15:27:06.561Z,17.39
2023-09-17T15:29:36.118Z,17.50
2023-09-17T15:32:04.581Z,17.60
2023-09-17T15:34:33.081Z,17.71
2023-09-17T15:37:01.794Z,17.79
2023-09-17T15:39:30.046Z,17.80
2023-09-17T15:41:59.508Z,17.83
2023-09-17T15:44:32.869Z,17.88
2023-09-17T15:47:03.540Z,17.93
2023-09-17T15:49:31.581Z,17.97
2023-09-17T15:51:59.940Z,17.97
2023-09-17T15:54:28.209Z,17.98
2023-09-17T15:56:56.200Z,17.98
2023-09-17T15:59:26.366Z,17.98
2023-09-17T16:01:56.455Z,17.98
2023-09-17T16:04:26.586Z,18.00
2023-09-17T16:06:54.818Z,18.00
2023-09-17T16:09:25.327Z,17.95
2023-09-17T16:11:54.692Z,17.92
2023-09-17T16:14:22.923Z,17.92
2023-09-17T16:16:56.009Z,17.89
2023-09-17T16:19:29.292Z,17.77
2023-09-17T16:21:58.280Z,17.65
2023-09-17T16:24:26.791Z,17.59
2023-09-17T16:26:54.788Z,17.56
2023-09-17T16:29:22.793Z,17.53
2023-09-17T16:31:54.683Z,17.52
2023-09-17T16:34:23.459Z,17.55
2023-09-17T16:36:53.351Z,17.56
2023-09-17T16:39:21.902Z,17.53
2023-09-17T16:41:49.835Z,17.43
2023-09-17T16:44:20.263Z,17.23
2023-09-17T16:46:49.720Z,16.99
2023-09-17T16:49:18.652Z,16.77
2023-09-17T16:51:48.251Z,16.55
2023-09-17T16:54:21.122Z,16.28
2023-09-17T16:56:49.108Z,16.02
2023-09-17T16:59:18.902Z,15.78
2023-09-17T17:01:48.195Z,15.55
2023-09-17T17:04:17.522Z,15.36
2023-09-17T17:06:45.449Z,15.22
2023-09-17T17:09:13.946Z,15.05
2023-09-17T17:11:44.434Z,14.90
2023-09-17T17:14:12.350Z,14.77
2023-09-17T17:16:40.550Z,14.61
2023-09-17T17:19:11.738Z,14.90
2023-09-17T17:21:42.491Z,16.62
2023-09-17T17:24:10.472Z,18.12
2023-09-17T17:26:39.217Z,18.73
2023-09-17T17:29:08.677Z,17.98
2023-09-17T17:31:41.670Z,17.11
2023-09-17T17:34:11.424Z,16.45
2023-09-17T17:36:42.787Z,15.92
2023-09-17T17:39:11.690Z,15.42
2023-09-17T17:41:43.778Z,15.04
2023-09-17T17:44:12.242Z,14.67
2023-09-17T17:46:42.654Z,14.33
2023-09-17T17:49:12.653Z,14.48
2023-09-17T17:51:42.435Z,16.05
2023-09-17T17:54:11.317Z,17.43
2023-09-17T17:56:39.536Z,17.97
2023-09-17T17:59:08.066Z,17.15
2023-09-17T18:01:37.690Z,16.22
2023-09-17T18:04:07.112Z,15.52
2023-09-17T18:06:37.050Z,14.96
2023-09-17T18:09:09.454Z,14.49
2023-09-17T18:11:38.652Z,14.01
2023-09-17T18:14:08.605Z,14.07
2023-09-17T18:16:37.197Z,15.58
2023-09-17T18:19:05.233Z,16.90
2023-09-17T18:21:33.095Z,17.71
2023-09-17T18:24:04.072Z,17.42
2023-09-17T18:26:31.924Z,16.32
2023-09-17T18:29:00.926Z,15.39
2023-09-17T18:31:36.494Z,14.72
2023-09-17T18:34:04.986Z,14.14
2023-09-17T18:36:35.678Z,13.74
2023-09-17T18:39:04.265Z,13.74
2023-09-17T18:41:33.161Z,15.17
2023-09-17T18:44:01.403Z,16.56
2023-09-17T18:46:33.739Z,17.09
2023-09-17T18:49:05.930Z,16.15
2023-09-17T18:51:34.384Z,15.11
2023-09-17T18:54:04.385Z,14.35
2023-09-17T18:56:33.066Z,13.77
2023-09-17T18:59:03.577Z,13.33
2023-09-17T19:01:31.859Z,13.34
2023-09-17T19:04:01.295Z,14.80
2023-09-17T19:06:29.323Z,16.14
2023-09-17T19:08:58.537Z,16.67
2023-09-17T19:11:29.112Z,15.82
2023-09-17T19:14:01.826Z,14.82
2023-09-17T19:16:31.184Z,14.06
2023-09-17T19:18:59.424Z,13.47
2023-09-17T19:21:28.135Z,12.99
2023-09-17T19:23:58.571Z,12.97
2023-09-17T19:26:26.566Z,14.42
2023-09-17T19:28:56.000Z,15.71
2023-09-17T19:31:26.282Z,16.25
2023-09-17T19:33:54.419Z,15.35
2023-09-17T19:36:24.414Z,14.36
2023-09-17T19:38:53.936Z,13.61
2023-09-17T19:41:22.211Z,13.05
2023-09-17T19:43:50.939Z,12.92
2023-09-17T19:46:21.183Z,14.14
2023-09-17T19:48:49.415Z,15.39
2023-09-17T19:51:18.780Z,15.71
2023-09-17T19:53:47.017Z,14.90
2023-09-17T19:56:15.411Z,13.98
2023-09-17T19:58:44.496Z,13.21
2023-09-17T20:01:13.619Z,12.59
2023-09-17T20:03:41.937Z,12.42
2023-09-17T20:06:11.578Z,13.63
2023-09-17T20:08:39.684Z,15.03
2023-09-17T20:11:08.175Z,16.00
2023-09-17T20:13:37.119Z,16.28
2023-09-17T20:16:05.171Z,15.31
2023-09-17T20:18:34.053Z,14.30
2023-09-17T20:21:01.908Z,13.53
2023-09-17T20:23:37.266Z,12.89
2023-09-17T20:26:11.240Z,12.34
2023-09-17T20:28:39.329Z,12.32
2023-09-17T20:31:07.625Z,13.61
2023-09-17T20:33:36.775Z,14.94
2023-09-17T20:36:05.141Z,15.52
2023-09-17T20:38:33.418Z,14.72
2023-09-17T20:41:01.885Z,13.70
2023-09-17T20:43:32.534Z,12.95
2023-09-17T20:46:00.807Z,12.77
2023-09-17T20:48:29.333Z,14.03
2023-09-17T20:51:04.503Z,15.51
2023-09-17T20:53:33.598Z,15.97
2023-09-17T20:56:02.891Z,14.98
2023-09-17T20:58:30.899Z,13.91
2023-09-17T21:00:58.988Z,13.11
2023-09-17T21:03:27.332Z,12.44
2023-09-17T21:05:57.117Z,12.49
2023-09-17T21:08:25.805Z,13.96
2023-09-17T21:10:54.040Z,15.25
2023-09-17T21:13:22.422Z,15.99
2023-09-17T21:15:51.504Z,16.09
2023-09-17T21:18:19.386Z,15.02
2023-09-17T21:20:47.856Z,13.89
2023-09-17T21:23:16.558Z,13.05
2023-09-17T21:25:44.648Z,12.71
2023-09-17T21:28:12.660Z,13.79
2023-09-17T21:30:42.892Z,15.20
2023-09-17T21:33:10.948Z,16.15
2023-09-17T21:35:41.194Z,15.98
2023-09-17T21:38:09.718Z,14.77
2023-09-17T21:40:39.865Z,13.71
2023-09-17T21:43:08.056Z,12.93
2023-09-17T21:45:36.611Z,12.73
2023-09-17T21:48:05.052Z,14.16
2023-09-17T21:50:34.640Z,15.56
2023-09-17T21:53:03.184Z,16.40
2023-09-17T21:55:31.373Z,16.47
2023-09-17T21:57:59.370Z,15.38
2023-09-17T22:00:27.234Z,14.33
2023-09-17T22:02:59.213Z,13.49
2023-09-17T22:05:29.651Z,13.23
2023-09-17T22:07:59.437Z,14.55
2023-09-17T22:10:27.281Z,15.86
2023-09-17T22:12:55.179Z,16.40
2023-09-17T22:15:25.909Z,15.50
2023-09-17T22:17:54.722Z,14.42
2023-09-17T22:20:23.609Z,13.63
2023-09-17T22:22:54.350Z,13.05
2023-09-17T22:25:23.687Z,13.04
2023-09-17T22:27:54.558Z,14.48
2023-09-17T22:30:24.968Z,15.83
2023-09-17T22:32:53.041Z,16.67
2023-09-17T22:35:23.675Z,16.85
2023-09-17T22:37:53.950Z,15.79
2023-09-17T22:40:22.172Z,14.73
2023-09-17T22:42:51.017Z,13.93
2023-09-17T22:45:19.139Z,13.45
2023-09-17T22:47:47.336Z,14.51
2023-09-17T22:50:15.335Z,15.99
2023-09-17T22:52:43.531Z,16.91
2023-09-17T22:55:11.773Z,16.66
2023-09-17T22:57:40.359Z,15.54
2023-09-17T23:00:10.142Z,14.57
2023-09-17T23:02:38.094Z,13.82
2023-09-17T23:05:09.620Z,13.62
2023-09-17T23:07:37.689Z,14.82
2023-09-17T23:10:06.482Z,15.97
2023-09-17T23:12:34.434Z,16.72
2023-09-17T23:15:05.098Z,16.76
2023-09-17T23:17:34.199Z,15.62
2023-09-17T23:20:09.437Z,14.50
2023-09-17T23:22:38.057Z,13.66
2023-09-17T23:25:06.404Z,13.10
2023-09-17T23:27:34.429Z,12.95
2023-09-17T23:30:03.985Z,13.97
2023-09-17T23:32:32.096Z,15.22
2023-09-17T23:35:01.181Z,16.23
2023-09-17T23:37:30.701Z,16.84
2023-09-17T23:39:59.957Z,16.29
2023-09-17T23:42:27.936Z,15.20
2023-09-17T23:44:56.566Z,14.31
2023-09-17T23:47:25.594Z,13.65
2023-09-17T23:49:54.735Z,13.47
2023-09-17T23:52:22.855Z,14.59
2023-09-17T23:54:51.543Z,16.00
2023-09-17T23:57:19.688Z,16.90
2023-09-17T23:59:47.989Z,16.68
